Time;durP1;ratioP1;P1;durP2;ratioP2;P2;SDS_P1;SDS_P2;PMS_P1;PMS_P2;Temp;Humidity;BMP_temperature;BMP_pressure;BME280_temperature;BME280_humidity;BME280_pressure;Samples;Min_cycle;Max_cycle;Signal;HPM_P1;HPM_P2
2022/10/24 00:00:49;;;;;;;4.93;2.50;;;13.50;99.90;;;;;;5071204;28;20471;-61
2022/10/24 00:03:15;;;;;;;6.30;2.10;;;13.50;99.90;;;;;;5065393;28;20420;-59
2022/10/24 00:05:45;;;;;;;1.83;1.47;;;13.50;99.90;;;;;;5068203;28;20543;-56
2022/10/24 00:08:12;;;;;;;3.70;1.77;;;13.50;99.90;;;;;;5070281;28;20448;-57
2022/10/24 00:10:42;;;;;;;5.33;1.90;;;13.50;99.90;;;;;;5072183;28;20420;-59
2022/10/24 00:13:09;;;;;;;5.07;1.97;;;13.50;99.90;;;;;;5064472;28;20795;-59
2022/10/24 00:15:35;;;;;;;4.47;1.83;;;13.50;99.90;;;;;;5076216;28;20424;-57
2022/10/24 00:18:00;;;;;;;3.37;1.83;;;13.50;99.90;;;;;;5066856;28;20910;-56
2022/10/24 00:20:26;;;;;;;7.77;2.00;;;13.40;99.90;;;;;;5066555;28;20186;-57
2022/10/24 00:22:52;;;;;;;4.90;1.57;;;13.40;99.90;;;;;;5066194;28;20587;-61
2022/10/24 00:25:17;;;;;;;2.47;1.70;;;13.40;99.90;;;;;;5067942;28;20179;-60
2022/10/24 00:27:43;;;;;;;4.50;1.83;;;13.40;99.90;;;;;;5069919;28;20637;-56
2022/10/24 00:30:09;;;;;;;3.70;1.83;;;13.40;99.90;;;;;;5067792;28;20691;-57
2022/10/24 00:32:35;;;;;;;7.63;2.07;;;13.40;99.90;;;;;;5066509;28;20201;-56
2022/10/24 00:35:01;;;;;;;23.10;2.40;;;13.40;99.90;;;;;;5070749;28;20432;-56
2022/10/24 00:37:26;;;;;;;5.60;2.03;;;13.40;99.90;;;;;;5064292;28;20202;-58
2022/10/24 00:39:52;;;;;;;5.90;2.30;;;13.40;99.90;;;;;;5068303;28;20163;-55
2022/10/24 00:42:18;;;;;;;2.83;2.17;;;13.40;99.90;;;;;;5066283;28;20201;-63
2022/10/24 00:44:45;;;;;;;8.07;2.13;;;13.40;99.90;;;;;;5062803;28;20522;-56
2022/10/24 00:47:26;;;;;;;5.57;2.23;;;13.40;99.90;;;;;;5063221;28;20257;-57
2022/10/24 00:50:00;;;;;;;6.70;1.60;;;13.40;99.90;;;;;;5068740;28;20440;-56
2022/10/24 00:52:32;;;;;;;9.40;2.30;;;13.40;99.90;;;;;;5063431;28;20525;-56
2022/10/24 00:55:00;;;;;;;3.03;1.93;;;13.40;99.90;;;;;;5070948;28;20549;-57
2022/10/24 00:57:36;;;;;;;7.23;3.13;;;13.40;99.90;;;;;;5068667;28;20425;-55
2022/10/24 01:00:09;;;;;;;6.00;2.20;;;13.40;99.90;;;;;;5065239;28;20965;-56
2022/10/24 01:02:35;;;;;;;5.10;1.70;;;13.40;99.90;;;;;;5063746;28;20439;-56
2022/10/24 01:05:03;;;;;;;6.10;2.03;;;13.40;99.90;;;;;;5066459;28;20528;-56
2022/10/24 01:07:46;;;;;;;7.77;2.00;;;13.40;99.90;;;;;;5067014;28;20432;-56
2022/10/24 01:10:41;;;;;;;7.10;3.63;;;13.40;99.90;;;;;;5062410;28;20424;-54
2022/10/24 01:13:41;;;;;;;6.87;2.37;;;13.30;99.90;;;;;;5068405;28;20425;-56
2022/10/24 01:16:34;;;;;;;9.20;2.17;;;13.40;99.90;;;;;;5066968;28;20428;-55
2022/10/24 01:19:13;;;;;;;14.33;3.53;;;13.40;99.90;;;;;;5078096;22;20503;-59
2022/10/24 01:21:51;;;;;;;7.57;2.30;;;13.40;99.90;;;;;;5080414;28;20972;-58
2022/10/24 01:25:03;;;;;;;12.53;3.00;;;13.40;99.90;;;;;;5085799;28;20910;-60
2022/10/24 01:28:03;;;;;;;4.73;2.27;;;13.40;99.90;;;;;;5090733;28;20412;-60
2022/10/24 01:30:32;;;;;;;6.37;2.37;;;13.40;99.90;;;;;;5067674;28;20633;-60
2022/10/24 01:33:17;;;;;;;6.40;2.40;;;13.40;99.90;;;;;;5062103;28;20421;-60
2022/10/24 01:36:06;;;;;;;6.37;2.73;;;13.40;99.90;;;;;;5047098;28;20426;-60
2022/10/24 01:38:39;;;;;;;4.13;2.00;;;13.40;99.90;;;;;;5066860;28;20464;-60
2022/10/24 01:41:12;;;;;;;8.50;2.17;;;13.40;99.90;;;;;;5060228;28;20500;-60
2022/10/24 01:43:49;;;;;;;9.73;2.33;;;13.40;99.90;;;;;;5063512;28;20440;-60
2022/10/24 01:46:20;;;;;;;6.57;2.00;;;13.40;99.90;;;;;;5059508;28;20475;-60
2022/10/24 01:48:53;;;;;;;7.60;2.40;;;13.40;99.90;;;;;;5066889;28;21073;-59
2022/10/24 01:51:22;;;;;;;5.23;2.40;;;13.40;99.90;;;;;;5064242;28;20417;-60
2022/10/24 01:53:49;;;;;;;9.93;2.17;;;13.40;99.90;;;;;;5061010;28;20409;-60
2022/10/24 01:56:15;;;;;;;8.97;2.80;;;13.40;99.90;;;;;;5059694;28;20465;-60
2022/10/24 01:58:41;;;;;;;5.60;2.07;;;13.30;99.90;;;;;;5065246;28;20489;-60
2022/10/24 02:01:14;;;;;;;5.90;2.20;;;13.30;99.90;;;;;;5065304;28;20201;-60
2022/10/24 02:03:48;;;;;;;8.70;2.40;;;13.30;99.90;;;;;;5069469;28;20257;-60
2022/10/24 02:06:27;;;;;;;10.03;3.30;;;13.20;99.90;;;;;;5064870;28;20802;-60
2022/10/24 02:08:58;;;;;;;10.47;3.23;;;13.20;99.90;;;;;;5057956;28;20445;-60
2022/10/24 02:11:24;;;;;;;12.47;2.63;;;13.20;99.90;;;;;;5057917;28;20417;-60
2022/10/24 02:13:58;;;;;;;7.53;2.80;;;13.30;99.90;;;;;;5062245;28;20437;-60
2022/10/24 02:16:24;;;;;;;15.93;2.90;;;13.30;99.90;;;;;;5059901;28;20518;-60
2022/10/24 02:18:53;;;;;;;4.43;2.47;;;13.30;99.90;;;;;;5055184;28;20544;-59
2022/10/24 02:21:35;;;;;;;17.80;2.67;;;13.30;99.90;;;;;;5060955;28;20440;-58
2022/10/24 02:24:18;;;;;;;11.90;3.40;;;13.30;99.90;;;;;;5041819;28;20424;-59
2022/10/24 02:26:52;;;;;;;9.80;3.10;;;13.30;99.90;;;;;;5060977;28;20413;-59
2022/10/24 02:29:31;;;;;;;7.23;2.80;;;13.40;99.90;;;;;;5058921;28;20467;-59
2022/10/24 02:31:57;;;;;;;6.03;2.40;;;13.40;99.90;;;;;;5063328;28;20440;-60
2022/10/24 02:34:26;;;;;;;7.60;2.97;;;13.40;99.90;;;;;;5060276;28;20482;-59
2022/10/24 02:36:54;;;;;;;19.17;3.10;;;13.40;99.90;;;;;;5061637;28;20430;-59
2022/10/24 02:39:21;;;;;;;6.00;3.10;;;13.50;99.90;;;;;;5057022;28;20496;-58
2022/10/24 02:41:49;;;;;;;10.20;3.13;;;13.50;99.90;;;;;;5070145;28;20421;-58
2022/10/24 02:44:17;;;;;;;8.17;3.43;;;13.50;99.90;;;;;;5063571;28;20439;-59
2022/10/24 02:46:45;;;;;;;13.30;3.77;;;13.50;99.90;;;;;;5063589;28;20486;-60
2022/10/24 02:49:11;;;;;;;14.53;3.80;;;13.50;99.90;;;;;;5065240;28;20537;-59
2022/10/24 02:51:40;;;;;;;10.97;3.57;;;13.50;99.90;;;;;;5060309;28;20424;-60
2022/10/24 02:54:06;;;;;;;11.00;3.53;;;13.50;99.90;;;;;;5071545;28;20464;-60
2022/10/24 02:56:32;;;;;;;8.00;3.10;;;13.50;99.90;;;;;;5069659;28;20470;-60
2022/10/24 02:58:58;;;;;;;12.13;3.33;;;13.50;99.90;;;;;;5044170;28;20479;-58
2022/10/24 03:01:23;;;;;;;9.33;3.07;;;13.60;99.90;;;;;;5067834;28;20511;-60
2022/10/24 03:03:49;;;;;;;7.53;3.00;;;13.50;99.90;;;;;;5060979;28;20701;-59
2022/10/24 03:06:15;;;;;;;9.77;3.10;;;13.60;99.90;;;;;;5045589;28;20257;-59
2022/10/24 03:08:41;;;;;;;11.00;3.43;;;13.60;99.90;;;;;;5062257;28;20607;-59
2022/10/24 03:11:07;;;;;;;10.83;3.30;;;13.60;99.90;;;;;;5052153;28;20228;-59
2022/10/24 03:13:32;;;;;;;11.20;3.20;;;13.60;99.90;;;;;;5060747;28;20198;-60
2022/10/24 03:15:58;;;;;;;12.60;3.03;;;13.60;99.90;;;;;;5065233;28;20858;-59
2022/10/24 03:18:23;;;;;;;11.90;3.63;;;13.60;99.90;;;;;;5045475;28;20568;-59
2022/10/24 03:20:49;;;;;;;13.70;3.47;;;13.60;99.90;;;;;;5064614;28;20175;-59
2022/10/24 03:23:15;;;;;;;7.93;2.83;;;13.60;99.90;;;;;;5049860;28;20259;-59
2022/10/24 03:25:41;;;;;;;7.10;3.30;;;13.60;99.90;;;;;;5044617;28;20171;-59
2022/10/24 03:28:07;;;;;;;11.00;3.60;;;13.60;99.90;;;;;;5059063;28;20202;-59
2022/10/24 03:30:33;;;;;;;14.23;3.10;;;13.50;99.90;;;;;;5064616;28;21049;-59
2022/10/24 03:32:58;;;;;;;12.87;2.80;;;13.50;99.90;;;;;;5061109;28;20471;-57
2022/10/24 03:35:24;;;;;;;11.17;3.60;;;13.50;99.90;;;;;;5066574;28;20261;-60
2022/10/24 03:37:49;;;;;;;14.43;3.00;;;13.50;99.90;;;;;;5060867;28;20206;-59
2022/10/24 03:40:15;;;;;;;12.20;2.73;;;13.50;99.90;;;;;;5070277;28;20197;-60
2022/10/24 03:42:41;;;;;;;19.50;3.00;;;13.50;99.90;;;;;;5060767;28;20318;-58
2022/10/24 03:45:07;;;;;;;10.33;3.23;;;13.60;99.90;;;;;;5069585;28;20184;-60
2022/10/24 03:47:32;;;;;;;5.97;2.73;;;13.50;99.90;;;;;;5050591;28;20178;-59
2022/10/24 03:49:58;;;;;;;8.20;3.00;;;13.60;99.90;;;;;;5058045;28;20426;-58
2022/10/24 03:52:24;;;;;;;7.33;2.83;;;13.60;99.90;;;;;;5061089;28;20667;-60
2022/10/24 03:54:50;;;;;;;7.83;3.33;;;13.60;99.90;;;;;;5065719;28;20178;-61
2022/10/24 03:57:15;;;;;;;9.10;2.63;;;13.50;99.90;;;;;;5057875;28;20426;-59
2022/10/24 03:59:41;;;;;;;7.60;3.17;;;13.50;99.90;;;;;;5061274;28;20217;-61
2022/10/24 04:02:07;;;;;;;6.57;3.40;;;13.50;99.90;;;;;;5059734;28;20704;-60
2022/10/24 04:04:32;;;;;;;9.67;2.90;;;13.50;99.90;;;;;;5041531;28;20170;-59
2022/10/24 04:06:59;;;;;;;6.67;3.23;;;13.50;99.90;;;;;;5062980;28;20170;-59
2022/10/24 04:09:25;;;;;;;11.57;3.43;;;13.50;99.90;;;;;;5062911;28;20680;-60
2022/10/24 04:11:52;;;;;;;6.80;2.70;;;13.50;99.90;;;;;;5048586;28;20835;-61
2022/10/24 04:14:18;;;;;;;10.20;3.43;;;13.50;99.90;;;;;;5061816;28;20868;-60
2022/10/24 04:16:44;;;;;;;11.00;3.07;;;13.50;99.90;;;;;;5048307;28;20428;-60
2022/10/24 04:19:10;;;;;;;8.00;2.80;;;13.50;99.90;;;;;;5062648;28;20460;-60
2022/10/24 04:21:36;;;;;;;9.10;3.13;;;13.50;99.90;;;;;;5061262;28;20185;-55
2022/10/24 04:24:02;;;;;;;4.30;2.60;;;13.50;99.90;;;;;;5059177;28;20175;-60
2022/10/24 04:26:28;;;;;;;7.13;2.90;;;13.50;99.90;;;;;;5062087;28;20183;-59
2022/10/24 04:28:54;;;;;;;9.23;3.13;;;13.40;99.90;;;;;;5061599;28;20463;-60
2022/10/24 04:31:19;;;;;;;9.30;3.97;;;13.50;99.90;;;;;;5056898;28;20444;-60
2022/10/24 04:33:45;;;;;;;6.80;2.67;;;13.50;99.90;;;;;;5060620;28;20718;-60
2022/10/24 04:36:11;;;;;;;9.93;2.87;;;13.40;99.90;;;;;;5062998;28;20174;-58
2022/10/24 04:38:36;;;;;;;11.07;2.87;;;13.50;99.90;;;;;;5060498;28;20215;-60
2022/10/24 04:41:02;;;;;;;8.43;2.73;;;13.50;99.90;;;;;;5060309;28;20248;-59
2022/10/24 04:43:28;;;;;;;6.03;3.10;;;13.40;99.90;;;;;;5055439;28;20205;-61
2022/10/24 04:45:53;;;;;;;8.10;3.03;;;13.40;99.90;;;;;;5060196;28;20545;-61
2022/10/24 04:48:19;;;;;;;10.10;3.23;;;13.40;99.90;;;;;;5065283;28;20182;-61
2022/10/24 04:50:45;;;;;;;5.07;2.97;;;13.40;99.90;;;;;;5077600;28;20177;-61
2022/10/24 04:53:11;;;;;;;9.40;3.20;;;13.40;99.90;;;;;;5077447;28;20201;-61
2022/10/24 04:55:37;;;;;;;9.93;3.57;;;13.40;99.90;;;;;;5048289;28;22333;-61
2022/10/24 04:58:03;;;;;;;9.53;3.03;;;13.40;99.90;;;;;;5047652;28;20522;-62
2022/10/24 05:00:29;;;;;;;8.00;3.63;;;13.40;99.90;;;;;;5065939;28;20251;-62
2022/10/24 05:02:55;;;;;;;11.33;3.33;;;13.40;99.90;;;;;;5062059;28;20175;-61
2022/10/24 05:05:20;;;;;;;8.43;3.00;;;13.30;99.90;;;;;;5046347;28;20421;-61
2022/10/24 05:07:46;;;;;;;8.53;4.20;;;13.30;99.90;;;;;;5062872;28;20759;-61
2022/10/24 05:10:14;;;;;;;8.20;3.40;;;13.30;99.90;;;;;;5066867;28;20220;-62
2022/10/24 05:12:40;;;;;;;7.90;3.60;;;13.30;99.90;;;;;;5083893;28;20186;-62
2022/10/24 05:15:07;;;;;;;8.87;3.90;;;13.30;99.90;;;;;;5068599;28;20435;-63
2022/10/24 05:17:33;;;;;;;10.20;3.60;;;13.30;99.90;;;;;;5044067;28;20471;-62
2022/10/24 05:20:00;;;;;;;15.70;4.40;;;13.30;99.90;;;;;;5057738;28;20476;-62
2022/10/24 05:22:25;;;;;;;11.07;4.23;;;13.30;99.90;;;;;;5070925;28;20477;-61
2022/10/24 05:24:51;;;;;;;16.93;4.10;;;13.30;99.90;;;;;;5064558;28;21029;-62
2022/10/24 05:27:23;;;;;;;12.90;3.63;;;13.30;99.90;;;;;;5070527;28;20179;-61
2022/10/24 05:29:49;;;;;;;8.50;3.23;;;13.30;99.90;;;;;;5069498;28;20194;-61
2022/10/24 05:32:15;;;;;;;5.43;2.47;;;13.20;99.90;;;;;;5065588;28;20508;-61
2022/10/24 05:34:40;;;;;;;11.00;3.47;;;13.30;99.90;;;;;;5062262;28;20444;-61
2022/10/24 05:37:06;;;;;;;6.23;2.87;;;13.20;99.90;;;;;;5061353;28;20175;-62
2022/10/24 05:39:31;;;;;;;11.03;3.27;;;13.20;99.90;;;;;;5057524;28;20233;-62
2022/10/24 05:41:57;;;;;;;14.73;4.20;;;13.20;99.90;;;;;;5069741;28;20227;-61
2022/10/24 05:44:23;;;;;;;14.00;3.77;;;13.20;99.90;;;;;;5070912;28;20183;-61
2022/10/24 05:46:48;;;;;;;11.03;3.77;;;13.20;99.90;;;;;;5071250;28;20170;-61
2022/10/24 05:49:14;;;;;;;8.80;3.30;;;13.10;99.90;;;;;;5065506;28;20252;-62
2022/10/24 05:51:39;;;;;;;7.90;4.10;;;13.10;99.90;;;;;;5063945;28;20175;-61
2022/10/24 05:54:05;;;;;;;13.97;3.97;;;13.10;99.90;;;;;;5051492;28;20689;-62
2022/10/24 05:56:31;;;;;;;21.43;4.07;;;13.10;99.90;;;;;;5075958;28;20264;-62
2022/10/24 05:58:56;;;;;;;7.50;3.83;;;13.10;99.90;;;;;;5058859;28;20217;-61
2022/10/24 06:01:22;;;;;;;10.57;4.07;;;13.10;99.90;;;;;;5052641;28;20588;-62
2022/10/24 06:03:48;;;;;;;7.80;4.33;;;13.10;99.90;;;;;;5044055;28;20174;-61
2022/10/24 06:06:14;;;;;;;7.33;4.70;;;13.10;99.90;;;;;;5065749;28;20178;-61
2022/10/24 06:08:39;;;;;;;9.13;5.07;;;13.10;99.90;;;;;;5062039;28;20190;-62
2022/10/24 06:11:09;;;;;;;9.33;5.30;;;13.10;99.90;;;;;;5075038;28;20178;-62
2022/10/24 06:13:35;;;;;;;9.20;4.13;;;13.10;99.90;;;;;;5063742;28;20210;-62
2022/10/24 06:16:01;;;;;;;9.73;3.73;;;13.10;99.90;;;;;;5074851;28;20531;-61
2022/10/24 06:18:26;;;;;;;10.00;4.27;;;13.10;99.90;;;;;;5054306;28;20975;-61
2022/10/24 06:20:52;;;;;;;16.07;5.37;;;13.10;99.90;;;;;;5070129;28;20251;-61
2022/10/24 06:23:18;;;;;;;9.17;4.57;;;13.10;99.90;;;;;;5065586;28;20174;-62
2022/10/24 06:25:44;;;;;;;6.67;4.00;;;13.10;99.90;;;;;;5066851;28;20185;-61
2022/10/24 06:28:11;;;;;;;10.20;4.07;;;13.10;99.90;;;;;;5067562;28;20276;-62
2022/10/24 06:30:39;;;;;;;9.33;4.40;;;13.10;99.90;;;;;;5064958;28;20185;-62
2022/10/24 06:33:04;;;;;;;6.97;3.00;;;13.10;99.90;;;;;;5040962;28;21011;-62
2022/10/24 06:35:30;;;;;;;10.33;3.60;;;13.10;99.90;;;;;;5062970;28;20524;-62
2022/10/24 06:37:56;;;;;;;13.27;4.20;;;13.10;99.90;;;;;;5070734;28;20202;-61
2022/10/24 06:40:22;;;;;;;7.13;4.00;;;13.10;99.90;;;;;;5065579;28;20243;-61
2022/10/24 06:42:47;;;;;;;11.20;4.93;;;13.20;99.90;;;;;;5061730;28;20516;-62
2022/10/24 06:45:13;;;;;;;7.40;3.50;;;13.20;99.90;;;;;;5049137;28;20170;-63
2022/10/24 06:47:39;;;;;;;7.83;4.47;;;13.20;99.90;;;;;;5051039;28;20174;-61
2022/10/24 06:50:05;;;;;;;10.93;4.97;;;13.20;99.90;;;;;;5060592;28;20187;-61
2022/10/24 06:52:31;;;;;;;11.43;4.23;;;13.20;99.90;;;;;;5062828;28;20201;-62
2022/10/24 06:54:56;;;;;;;9.40;5.10;;;13.20;99.90;;;;;;5070883;28;20446;-62
2022/10/24 06:57:22;;;;;;;12.77;4.67;;;13.20;99.90;;;;;;5063025;28;20174;-61
2022/10/24 06:59:47;;;;;;;16.03;4.40;;;13.20;99.90;;;;;;5066881;28;20209;-62
2022/10/24 07:02:15;;;;;;;10.50;4.27;;;13.20;99.90;;;;;;5051224;28;20178;-61
2022/10/24 07:04:41;;;;;;;8.77;3.90;;;13.20;99.90;;;;;;5070511;28;20178;-61
2022/10/24 07:07:11;;;;;;;9.40;4.00;;;13.20;99.90;;;;;;5063786;28;20420;-61
2022/10/24 07:09:37;;;;;;;10.77;4.33;;;13.20;99.90;;;;;;5066458;28;20464;-61
2022/10/24 07:12:03;;;;;;;11.13;3.37;;;13.20;99.90;;;;;;5052033;28;20451;-61
2022/10/24 07:14:28;;;;;;;11.93;4.70;;;13.20;99.90;;;;;;5068837;28;20163;-61
2022/10/24 07:16:54;;;;;;;7.90;4.00;;;13.20;99.90;;;;;;5047372;28;20175;-61
2022/10/24 07:19:20;;;;;;;7.20;3.70;;;13.20;99.90;;;;;;5065657;28;20740;-61
2022/10/24 07:21:45;;;;;;;9.70;3.20;;;13.20;99.90;;;;;;5057649;28;20561;-59
2022/10/24 07:24:12;;;;;;;11.20;3.40;;;13.30;99.90;;;;;;5071861;28;20206;-61
2022/10/24 07:26:38;;;;;;;7.13;2.97;;;13.30;99.90;;;;;;5066126;28;20295;-60
2022/10/24 07:29:04;;;;;;;5.93;3.60;;;13.30;99.90;;;;;;5070381;28;20460;-61
2022/10/24 07:31:32;;;;;;;7.10;3.17;;;13.30;99.90;;;;;;5065063;28;20421;-60
2022/10/24 07:33:59;;;;;;;7.97;3.10;;;13.30;99.90;;;;;;5061177;28;20179;-60
2022/10/24 07:36:26;;;;;;;7.60;2.50;;;13.30;99.90;;;;;;5063395;28;21105;-59
2022/10/24 07:38:55;;;;;;;4.93;2.70;;;13.30;99.90;;;;;;5082173;28;20460;-60
2022/10/24 07:41:23;;;;;;;8.23;2.83;;;13.30;99.90;;;;;;5053126;28;20504;-60
2022/10/24 07:43:49;;;;;;;8.90;2.53;;;13.30;99.90;;;;;;5053651;28;20409;-61
2022/10/24 07:46:17;;;;;;;5.90;2.90;;;13.30;99.90;;;;;;5053339;28;20473;-60
2022/10/24 07:48:43;;;;;;;5.10;2.20;;;13.40;99.90;;;;;;5065883;28;20459;-60
2022/10/24 07:51:12;;;;;;;6.40;2.00;;;13.40;99.90;;;;;;5064488;28;20774;-60
2022/10/24 07:53:38;;;;;;;6.70;2.30;;;13.50;99.90;;;;;;5066838;28;20175;-60
2022/10/24 07:56:08;;;;;;;6.70;2.37;;;13.50;99.90;;;;;;5072254;28;20424;-60
2022/10/24 07:58:34;;;;;;;7.10;2.77;;;13.50;99.90;;;;;;5054718;28;20473;-60
2022/10/24 08:01:12;;;;;;;4.30;2.50;;;13.50;99.90;;;;;;5066224;28;20416;-60
2022/10/24 08:03:38;;;;;;;6.67;2.67;;;13.60;99.90;;;;;;5070490;28;20433;-60
2022/10/24 08:06:10;;;;;;;12.80;3.83;;;13.60;99.90;;;;;;5067298;28;20428;-60
2022/10/24 08:08:36;;;;;;;7.23;3.03;;;13.60;99.90;;;;;;5068247;28;20206;-60
2022/10/24 08:11:07;;;;;;;6.00;2.70;;;13.60;99.90;;;;;;5067938;28;20428;-60
2022/10/24 08:13:33;;;;;;;3.80;2.00;;;13.50;99.90;;;;;;5071514;28;20960;-60
2022/10/24 08:15:58;;;;;;;8.13;2.63;;;13.50;99.90;;;;;;5068763;28;20444;-60
2022/10/24 08:18:24;;;;;;;4.40;2.13;;;13.50;99.90;;;;;;5060335;28;20203;-60
2022/10/24 08:21:00;;;;;;;6.73;2.47;;;13.50;99.90;;;;;;5073446;28;20186;-60
2022/10/24 08:23:26;;;;;;;6.90;2.57;;;13.50;99.90;;;;;;5079613;28;20178;-60
2022/10/24 08:25:53;;;;;;;5.47;2.40;;;13.40;99.90;;;;;;5070654;28;20436;-60
2022/10/24 08:28:19;;;;;;;8.33;2.80;;;13.40;99.90;;;;;;5053869;28;20417;-59
2022/10/24 08:30:53;;;;;;;8.03;2.77;;;13.40;99.90;;;;;;5066316;28;20441;-60
2022/10/24 08:33:18;;;;;;;7.97;2.60;;;13.40;99.90;;;;;;5063745;28;20430;-59
2022/10/24 08:35:44;;;;;;;10.80;3.00;;;13.40;99.90;;;;;;5062767;28;20409;-60
2022/10/24 08:38:10;;;;;;;6.97;2.67;;;13.30;99.90;;;;;;5072298;28;20202;-60
2022/10/24 08:40:35;;;;;;;6.83;2.77;;;13.30;99.90;;;;;;5071195;28;20202;-60
2022/10/24 08:43:01;;;;;;;12.90;3.10;;;13.40;99.90;;;;;;5063694;28;20652;-60
2022/10/24 08:45:51;;;;;;;6.33;2.80;;;13.30;99.90;;;;;;5061755;28;20178;-60
2022/10/24 08:48:26;;;;;;;12.53;2.73;;;13.30;99.90;;;;;;5058824;28;20178;-59
2022/10/24 08:50:54;;;;;;;4.90;2.30;;;13.40;99.90;;;;;;5070076;28;20444;-60
2022/10/24 08:53:30;;;;;;;9.17;2.57;;;13.30;99.90;;;;;;5084360;28;20448;-60
2022/10/24 08:55:58;;;;;;;10.20;2.70;;;13.40;99.90;;;;;;5091809;28;20843;-60
2022/10/24 08:58:39;;;;;;;12.60;3.20;;;13.40;99.90;;;;;;5081679;28;20464;-60
2022/10/24 09:01:13;;;;;;;6.07;2.67;;;13.40;99.90;;;;;;5051994;28;21199;-60
2022/10/24 09:03:47;;;;;;;4.83;2.13;;;13.40;99.90;;;;;;5070543;28;20452;-60
2022/10/24 09:06:32;;;;;;;7.13;3.30;;;13.40;99.90;;;;;;5071304;28;20503;-60
2022/10/24 09:09:05;;;;;;;5.60;2.10;;;13.40;99.90;;;;;;5062663;28;21070;-60
2022/10/24 09:11:47;;;;;;;5.20;2.17;;;13.40;99.90;;;;;;5069244;28;20412;-60
2022/10/24 09:14:13;;;;;;;5.73;2.47;;;13.40;99.90;;;;;;5069332;28;20523;-60
2022/10/24 09:16:42;;;;;;;5.80;2.93;;;13.40;99.90;;;;;;5069357;28;20424;-62
2022/10/24 09:19:14;;;;;;;8.50;4.70;;;13.40;99.90;;;;;;5060752;28;20491;-60
2022/10/24 09:21:41;;;;;;;13.50;3.00;;;13.40;99.90;;;;;;5079666;28;20416;-59
2022/10/24 09:24:25;;;;;;;6.13;2.53;;;13.30;99.90;;;;;;5072062;28;20515;-60
2022/10/24 09:26:51;;;;;;;4.27;2.60;;;13.40;99.90;;;;;;5069781;28;20448;-60
2022/10/24 09:29:17;;;;;;;7.23;2.87;;;13.40;99.90;;;;;;5062299;28;20998;-60
2022/10/24 09:31:42;;;;;;;4.97;2.23;;;13.40;99.90;;;;;;5075415;28;20427;-60
2022/10/24 09:34:08;;;;;;;9.43;2.50;;;13.30;99.90;;;;;;5067421;28;20217;-60
2022/10/24 09:36:34;;;;;;;9.47;2.97;;;13.30;99.90;;;;;;5053458;28;20198;-60
2022/10/24 09:39:28;;;;;;;9.70;2.70;;;13.30;99.90;;;;;;5063239;28;20319;-60
2022/10/24 09:41:54;;;;;;;5.07;2.03;;;13.30;99.90;;;;;;5059338;28;20170;-60
2022/10/24 09:44:42;;;;;;;7.13;2.10;;;13.30;99.90;;;;;;5064625;28;20428;-60
2022/10/24 09:47:23;;;;;;;3.90;1.93;;;13.30;99.90;;;;;;5063661;28;20433;-61
2022/10/24 09:49:49;;;;;;;5.53;2.07;;;13.30;99.90;;;;;;5052930;28;20430;-60
2022/10/24 09:52:23;;;;;;;3.40;2.00;;;13.30;99.90;;;;;;5050229;28;20436;-60
2022/10/24 09:55:10;;;;;;;3.53;2.53;;;13.30;99.90;;;;;;5058104;28;20227;-60
2022/10/24 09:57:39;;;;;;;5.60;3.20;;;13.30;99.90;;;;;;5058678;28;20412;-60
2022/10/24 10:00:06;;;;;;;3.70;2.80;;;13.30;99.90;;;;;;5054689;28;20969;-60
2022/10/24 10:02:33;;;;;;;5.60;2.17;;;13.20;99.90;;;;;;5065550;28;20451;-60
2022/10/24 10:05:02;;;;;;;7.63;2.67;;;13.20;99.90;;;;;;5058287;28;20440;-60
2022/10/24 10:07:28;;;;;;;6.13;2.00;;;13.20;99.90;;;;;;5070494;28;20421;-60
2022/10/24 10:09:57;;;;;;;6.03;2.03;;;13.20;99.90;;;;;;5061715;28;20452;-60
2022/10/24 10:12:38;;;;;;;6.97;1.80;;;13.20;99.90;;;;;;5047128;28;20867;-60
2022/10/24 10:15:23;;;;;;;5.67;1.83;;;13.20;99.90;;;;;;5032700;28;20413;-60
2022/10/24 10:18:47;;;;;;;3.53;1.67;;;13.20;99.90;;;;;;5055019;28;20505;-60
2022/10/24 10:21:22;;;;;;;3.37;1.83;;;13.20;99.90;;;;;;4974628;28;20432;-60
2022/10/24 10:23:50;;;;;;;7.23;2.00;;;13.20;99.90;;;;;;4974328;28;20422;-60
2022/10/24 10:26:21;;;;;;;3.53;1.80;;;13.20;99.90;;;;;;5023597;28;20429;-60
2022/10/24 10:28:52;;;;;;;7.90;2.23;;;13.10;99.90;;;;;;5053781;28;20453;-60
2022/10/24 10:31:22;;;;;;;4.07;1.80;;;13.10;99.90;;;;;;5062848;28;20433;-60
2022/10/24 10:34:39;;;;;;;3.33;2.10;;;13.20;99.90;;;;;;5061165;28;20420;-60
2022/10/24 10:37:31;;;;;;;12.43;2.10;;;13.10;99.90;;;;;;4995660;28;20787;-59
2022/10/24 10:40:13;;;;;;;4.57;2.40;;;13.10;99.90;;;;;;5063041;28;20464;-60
2022/10/24 10:42:55;;;;;;;4.60;2.23;;;13.10;99.90;;;;;;5072257;28;20429;-61
2022/10/24 10:45:34;;;;;;;4.03;2.23;;;13.10;99.90;;;;;;5065860;28;20435;-60
2022/10/24 10:48:11;;;;;;;5.40;2.83;;;13.10;99.90;;;;;;5061307;28;20524;-60
2022/10/24 10:50:44;;;;;;;12.60;5.80;;;13.10;99.90;;;;;;5063672;28;20452;-60
2022/10/24 10:53:34;;;;;;;3.80;1.77;;;13.10;99.90;;;;;;5061163;28;20454;-61
2022/10/24 10:56:02;;;;;;;6.33;2.30;;;13.00;99.90;;;;;;5042934;28;20515;-60
2022/10/24 10:59:00;;;;;;;8.40;3.73;;;13.00;99.90;;;;;;5064412;28;20459;-61
2022/10/24 11:02:10;;;;;;;4.70;3.73;;;13.00;99.90;;;;;;5055898;28;20448;-61
2022/10/24 11:04:51;;;;;;;2.80;1.70;;;13.00;99.90;;;;;;5066425;28;20478;-61
2022/10/24 11:07:30;;;;;;;5.30;2.43;;;13.00;99.90;;;;;;5057211;28;20402;-61
2022/10/24 11:10:01;;;;;;;2.50;1.90;;;13.00;99.90;;;;;;5067418;28;20448;-61
2022/10/24 11:12:37;;;;;;;4.03;2.70;;;13.00;99.90;;;;;;5068046;28;20547;-61
2022/10/24 11:15:19;;;;;;;4.20;2.50;;;12.90;99.90;;;;;;5064674;28;20459;-61
2022/10/24 11:17:53;;;;;;;3.17;2.17;;;12.90;99.90;;;;;;5064286;28;20421;-62
2022/10/24 11:20:31;;;;;;;2.70;1.50;;;12.90;99.90;;;;;;5068586;28;20467;-61
2022/10/24 11:23:04;;;;;;;4.87;1.90;;;12.90;99.90;;;;;;5059494;28;20413;-60
2022/10/24 11:25:41;;;;;;;13.83;6.80;;;12.90;99.90;;;;;;5060810;28;20441;-60
2022/10/24 11:28:19;;;;;;;8.43;4.50;;;12.90;99.90;;;;;;5065781;28;20443;-61
2022/10/24 11:30:53;;;;;;;7.67;3.53;;;13.00;99.90;;;;;;5066025;28;20436;-61
2022/10/24 11:33:23;;;;;;;11.90;4.27;;;13.10;99.90;;;;;;5060531;28;20988;-60
2022/10/24 11:36:27;;;;;;;4.60;2.57;;;13.10;99.90;;;;;;5047092;28;20841;-61
2022/10/24 11:39:14;;;;;;;7.63;3.27;;;13.20;99.90;;;;;;5051760;28;20883;-60
2022/10/24 11:42:15;;;;;;;7.30;2.43;;;13.30;99.90;;;;;;5058659;28;20463;-60
2022/10/24 11:44:46;;;;;;;4.10;1.97;;;13.40;99.90;;;;;;5036619;28;20483;-61
2022/10/24 11:47:24;;;;;;;4.60;1.97;;;13.40;99.90;;;;;;5049269;28;21154;-61
2022/10/24 11:50:20;;;;;;;8.40;1.60;;;13.40;99.90;;;;;;5061433;28;20886;-60
2022/10/24 11:52:50;;;;;;;5.47;2.70;;;13.40;99.90;;;;;;5067780;28;20432;-60
2022/10/24 11:55:19;;;;;;;4.87;2.03;;;13.40;99.90;;;;;;5064732;28;20789;-59
2022/10/24 11:57:49;;;;;;;7.33;2.00;;;13.40;99.90;;;;;;5060865;28;20433;-61
2022/10/24 12:00:27;;;;;;;5.73;2.63;;;13.40;99.90;;;;;;5059197;28;20444;-61
2022/10/24 12:03:17;;;;;;;4.20;2.63;;;13.50;99.90;;;;;;5064374;28;20420;-61
2022/10/24 12:05:54;;;;;;;3.33;2.30;;;13.60;99.90;;;;;;5062772;28;20508;-61
2022/10/24 12:08:56;;;;;;;1.80;1.63;;;13.60;99.90;;;;;;5064109;28;20416;-61
2022/10/24 12:11:44;;;;;;;3.70;2.17;;;13.60;99.90;;;;;;5063429;28;20424;-61
2022/10/24 12:14:34;;;;;;;4.17;2.30;;;13.60;99.90;;;;;;5057584;28;20432;-60
2022/10/24 12:17:38;;;;;;;4.13;2.40;;;13.60;99.90;;;;;;5064876;28;20782;-61
2022/10/24 12:20:10;;;;;;;3.83;2.47;;;13.60;99.90;;;;;;5054878;28;20551;-61
2022/10/24 12:22:41;;;;;;;4.97;2.23;;;13.60;99.90;;;;;;5059745;28;20568;-60
2022/10/24 12:25:16;;;;;;;4.90;1.90;;;13.60;99.90;;;;;;5063522;28;20435;-61
2022/10/24 12:27:42;;;;;;;3.63;2.37;;;13.60;99.90;;;;;;5071653;28;21003;-61
2022/10/24 12:30:20;;;;;;;5.23;2.20;;;13.60;99.90;;;;;;5069088;28;20433;-61
2022/10/24 12:32:48;;;;;;;4.83;2.47;;;13.50;99.90;;;;;;5067056;28;20785;-61
2022/10/24 12:35:26;;;;;;;2.00;1.80;;;13.60;99.90;;;;;;5067742;28;20424;-60
2022/10/24 12:37:52;;;;;;;6.23;2.30;;;13.60;99.90;;;;;;5069486;28;21151;-60
2022/10/24 12:41:04;;;;;;;4.90;2.30;;;13.60;99.90;;;;;;5067453;28;20492;-61
2022/10/24 12:43:37;;;;;;;2.63;2.20;;;13.60;99.90;;;;;;5005319;28;20808;-61
2022/10/24 12:46:15;;;;;;;2.87;2.10;;;13.60;99.90;;;;;;5050516;28;20863;-60
2022/10/24 12:48:41;;;;;;;6.63;2.10;;;13.60;99.90;;;;;;5070672;28;21025;-60
2022/10/24 12:51:30;;;;;;;3.00;2.20;;;13.60;99.90;;;;;;5062840;28;20449;-60
2022/10/24 12:54:14;;;;;;;2.00;1.80;;;13.60;99.90;;;;;;5058826;28;20432;-60
2022/10/24 12:56:49;;;;;;;2.97;1.60;;;13.60;99.90;;;;;;5063839;28;20910;-60
2022/10/24 12:59:24;;;;;;;3.67;1.97;;;13.60;99.90;;;;;;5056754;28;21150;-60
2022/10/24 13:02:13;;;;;;;1.83;1.70;;;13.60;99.90;;;;;;5062668;28;20979;-61
2022/10/24 13:05:01;;;;;;;2.20;1.83;;;13.50;99.90;;;;;;5059833;28;20467;-61
2022/10/24 13:08:03;;;;;;;3.40;2.10;;;13.50;99.90;;;;;;5050873;28;21056;-61